Home > Products > Valid Products > TAF

000
FTUS43 KDDC 032346 AAA
TAFDDC
TAF AMD
KDDC 032346Z 0400/0424 03014KT P6SM SCT030 BKN180
     FM040600 03018G25KT 6SM -SN OVC025
     FM040900 03015G25KT 2SM -SN OVC015
     FM042000 03015G22KT 6SM -SN OVC015=



000
FTUS43 KDDC 032346 AAA
TAFDDC
TAF AMD
KDDC 032346Z 0400/0424 03014KT P6SM SCT030 BKN180
     FM040600 03018G25KT 6SM -SN OVC025
     FM040900 03015G25KT 2SM -SN OVC015
     FM042000 03015G22KT 6SM -SN OVC015=



000
FTUS43 KDDC 032334
TAFDDC
TAF
KDDC 032334Z 0400/0424 03014KT P6SM OVC025
     FM040600 03018G25KT 6SM -SN OVC025
     FM040900 03015G25KT 2SM -SN OVC015
     FM042000 03015G22KT 6SM -SN OVC015=



000
FTUS43 KDDC 032334
TAFDDC
TAF
KDDC 032334Z 0400/0424 03014KT P6SM OVC025
     FM040600 03018G25KT 6SM -SN OVC025
     FM040900 03015G25KT 2SM -SN OVC015
     FM042000 03015G22KT 6SM -SN OVC015=



000
FTUS43 KDDC 032334
TAFGCK
TAF
KGCK 032334Z 0400/0424 03014KT P6SM SCT030 BKN180
     FM040500 04018G25KT 6SM -SN OVC025
     FM040800 03015G25KT 2SM -SN OVC015
     FM041800 03012G22KT 6SM -SN OVC015=



000
FTUS43 KDDC 032334
TAFHYS
TAF
KHYS 032334Z 0400/0424 01015KT P6SM BKN180
     FM040800 03015G25KT 3SM -SN BR OVC030
     FM041500 02010G20KT P6SM OVC045=



000
FTUS43 KDDC 032121 AAB
TAFDDC
TAF AMD
KDDC 032121Z 0321/0418 01017KT P6SM BKN027
     FM040000 36012KT P6SM BKN035
     FM040800 03018G25KT 6SM -SN OVC025
     FM041100 03019G26KT 2SM -SN OVC015=



000
FTUS43 KDDC 032121 AAB
TAFDDC
TAF AMD
KDDC 032121Z 0321/0418 01017KT P6SM BKN027
     FM040000 36012KT P6SM BKN035
     FM040800 03018G25KT 6SM -SN OVC025
     FM041100 03019G26KT 2SM -SN OVC015=



000
FTUS43 KDDC 032121 AAB
TAFDDC
TAF AMD
KDDC 032121Z 0321/0418 01017KT P6SM BKN027
     FM040000 36012KT P6SM BKN035
     FM040800 03018G25KT 6SM -SN OVC025
     FM041100 03019G26KT 2SM -SN OVC015=



000
FTUS43 KDDC 032121 AAB
TAFDDC
TAF AMD
KDDC 032121Z 0321/0418 01017KT P6SM BKN027
     FM040000 36012KT P6SM BKN035
     FM040800 03018G25KT 6SM -SN OVC025
     FM041100 03019G26KT 2SM -SN OVC015=



000
FTUS43 KDDC 032101 AAA
TAFGCK
TAF AMD
KGCK 032101Z 0321/0418 01017KT P6SM BKN016 OVC023
     FM032300 01013KT P6SM BKN035
     FM040600 03018G25KT 6SM -SN OVC025
     FM041100 03019G26KT 2SM -SN OVC015=



000
FTUS43 KDDC 032101 AAA
TAFGCK
TAF AMD
KGCK 032101Z 0321/0418 01017KT P6SM BKN016 OVC023
     FM032300 01013KT P6SM BKN035
     FM040600 03018G25KT 6SM -SN OVC025
     FM041100 03019G26KT 2SM -SN OVC015=



000
FTUS43 KDDC 031720
TAFDDC
TAF
KDDC 031720Z 0318/0418 36017G23KT P6SM SCT010 BKN250
     FM040000 36012KT P6SM BKN035
     FM040800 03018G25KT 6SM -SN OVC025
     FM041100 03019G26KT 2SM -SN OVC015=



000
FTUS43 KDDC 031720
TAFHYS
TAF
KHYS 031720Z 0318/0418 35017G23KT P6SM SCT035 BKN150
     FM040000 36012KT P6SM BKN035
     FM040700 03018G25KT 3SM -SN OVC015
     FM041300 03019G26KT P6SM OVC035=



000
FTUS43 KDDC 031720
TAFGCK
TAF
KGCK 031720Z 0318/0418 36017G26KT P6SM OVC010
     FM031930 36013KT P6SM SCT010 BKN035
     FM040800 03018G25KT 6SM -SN OVC025
     FM041100 03019G26KT 2SM -SN OVC015=



000
FTUS43 KDDC 031720
TAFDDC
TAF
KDDC 031720Z 0318/0418 36017G23KT P6SM SCT010 BKN250
     FM040000 36012KT P6SM BKN035
     FM040800 03018G25KT 6SM -SN OVC025
     FM041100 03019G26KT 2SM -SN OVC015=



000
FTUS43 KDDC 031720
TAFGCK
TAF
KGCK 031720Z 0318/0418 36017G26KT P6SM OVC010
     FM031930 36013KT P6SM SCT010 BKN035
     FM040800 03018G25KT 6SM -SN OVC025
     FM041100 03019G26KT 2SM -SN OVC015=



000
FTUS43 KDDC 031720
TAFHYS
TAF
KHYS 031720Z 0318/0418 35017G23KT P6SM SCT035 BKN150
     FM040000 36012KT P6SM BKN035
     FM040700 03018G25KT 3SM -SN OVC015
     FM041300 03019G26KT P6SM OVC035=



000
FTUS43 KDDC 031720
TAFGCK
TAF
KGCK 031720Z 0318/0418 36017G26KT P6SM OVC010
     FM031930 36013KT P6SM SCT010 BKN035
     FM040800 03018G25KT 6SM -SN OVC025
     FM041100 03019G26KT 2SM -SN OVC015=



000
FTUS43 KDDC 031720
TAFHYS
TAF
KHYS 031720Z 0318/0418 35017G23KT P6SM SCT035 BKN150
     FM040000 36012KT P6SM BKN035
     FM040700 03018G25KT 3SM -SN OVC015
     FM041300 03019G26KT P6SM OVC035=



000
FTUS43 KDDC 031720
TAFGCK
TAF
KGCK 031720Z 0318/0418 36017G26KT P6SM OVC010
     FM031930 36013KT P6SM SCT010 BKN035
     FM040800 03018G25KT 6SM -SN OVC025
     FM041100 03019G26KT 2SM -SN OVC015=



000
FTUS43 KDDC 031720
TAFDDC
TAF
KDDC 031720Z 0318/0418 36017G23KT P6SM SCT010 BKN250
     FM040000 36012KT P6SM BKN035
     FM040800 03018G25KT 6SM -SN OVC025
     FM041100 03019G26KT 2SM -SN OVC015=



000
FTUS43 KDDC 031601 AAA
TAFGCK
TAF AMD
KGCK 031601Z 0316/0412 03017KT 6SM BR BKN010
     FM031800 02013G23KT P6SM SCT015 SCT200
     FM040800 04020G27KT P6SM OVC025
     FM041100 04019G26KT 4SM -SN OVC015=



000
FTUS43 KDDC 031601 AAA
TAFGCK
TAF AMD
KGCK 031601Z 0316/0412 03017KT 6SM BR BKN010
     FM031800 02013G23KT P6SM SCT015 SCT200
     FM040800 04020G27KT P6SM OVC025
     FM041100 04019G26KT 4SM -SN OVC015=



000
FTUS43 KDDC 031137
TAFHYS
TAF
KHYS 031137Z 0312/0412 24008KT P6SM BKN200
     FM031500 32018G28KT P6SM SCT025 BKN200
     FM040800 02017G23KT P6SM OVC050
     FM041100 02016G22KT P6SM OVC025=



000
FTUS43 KDDC 031137
TAFDDC
TAF
KDDC 031137Z 0312/0412 20018G26KT P6SM SCT018 BKN200
     FM031400 23012G20KT P6SM BKN200
     FM031600 34014G24KT P6SM SCT015 SCT100
     FM040800 03018G25KT P6SM OVC025
     FM041100 03019G26KT 4SM -SN OVC015=



000
FTUS43 KDDC 031137
TAFGCK
TAF
KGCK 031137Z 0312/0412 19023G33KT P6SM SCT012 BKN200
     FM031300 23012KT P6SM BKN200
     FM031600 36013G23KT P6SM SCT015 SCT200
     FM040800 04020G27KT P6SM OVC025
     FM041100 04019G26KT 4SM -SN OVC015=



000
FTUS43 KDDC 031137
TAFGCK
TAF
KGCK 031137Z 0312/0412 19023G33KT P6SM SCT012 BKN200
     FM031300 23012KT P6SM BKN200
     FM031600 36013G23KT P6SM SCT015 SCT200
     FM040800 04020G27KT P6SM OVC025
     FM041100 04019G26KT 4SM -SN OVC015=



000
FTUS43 KDDC 031137
TAFDDC
TAF
KDDC 031137Z 0312/0412 20018G26KT P6SM SCT018 BKN200
     FM031400 23012G20KT P6SM BKN200
     FM031600 34014G24KT P6SM SCT015 SCT100
     FM040800 03018G25KT P6SM OVC025
     FM041100 03019G26KT 4SM -SN OVC015=



000
FTUS43 KDDC 031137
TAFDDC
TAF
KDDC 031137Z 0312/0412 20018G26KT P6SM SCT018 BKN200
     FM031400 23012G20KT P6SM BKN200
     FM031600 34014G24KT P6SM SCT015 SCT100
     FM040800 03018G25KT P6SM OVC025
     FM041100 03019G26KT 4SM -SN OVC015=



000
FTUS43 KDDC 031137
TAFGCK
TAF
KGCK 031137Z 0312/0412 19023G33KT P6SM SCT012 BKN200
     FM031300 23012KT P6SM BKN200
     FM031600 36013G23KT P6SM SCT015 SCT200
     FM040800 04020G27KT P6SM OVC025
     FM041100 04019G26KT 4SM -SN OVC015=



000
FTUS43 KDDC 031137
TAFHYS
TAF
KHYS 031137Z 0312/0412 24008KT P6SM BKN200
     FM031500 32018G28KT P6SM SCT025 BKN200
     FM040800 02017G23KT P6SM OVC050
     FM041100 02016G22KT P6SM OVC025=



000
FTUS43 KDDC 031137
TAFGCK
TAF
KGCK 031137Z 0312/0412 19023G33KT P6SM SCT012 BKN200
     FM031300 23012KT P6SM BKN200
     FM031600 36013G23KT P6SM SCT015 SCT200
     FM040800 04020G27KT P6SM OVC025
     FM041100 04019G26KT 4SM -SN OVC015=



000
FTUS43 KDDC 031137
TAFDDC
TAF
KDDC 031137Z 0312/0412 20018G26KT P6SM SCT018 BKN200
     FM031400 23012G20KT P6SM BKN200
     FM031600 34014G24KT P6SM SCT015 SCT100
     FM040800 03018G25KT P6SM OVC025
     FM041100 03019G26KT 4SM -SN OVC015=



000
FTUS43 KDDC 031137
TAFHYS
TAF
KHYS 031137Z 0312/0412 24008KT P6SM BKN200
     FM031500 32018G28KT P6SM SCT025 BKN200
     FM040800 02017G23KT P6SM OVC050
     FM041100 02016G22KT P6SM OVC025=



000
FTUS43 KDDC 031137
TAFHYS
TAF
KHYS 031137Z 0312/0412 24008KT P6SM BKN200
     FM031500 32018G28KT P6SM SCT025 BKN200
     FM040800 02017G23KT P6SM OVC050
     FM041100 02016G22KT P6SM OVC025=



000
FTUS43 KDDC 030848 AAB
TAFGCK
TAF AMD
KGCK 030848Z 0309/0406 19023G33KT P6SM SCT012 BKN200
     FM031300 23012KT P6SM BKN200
     FM031600 36013G23KT P6SM SCT015 SCT200=



000
FTUS43 KDDC 030848 AAB
TAFGCK
TAF AMD
KGCK 030848Z 0309/0406 19023G33KT P6SM SCT012 BKN200
     FM031300 23012KT P6SM BKN200
     FM031600 36013G23KT P6SM SCT015 SCT200=



000
FTUS43 KDDC 030848 AAB
TAFGCK
TAF AMD
KGCK 030848Z 0309/0406 19023G33KT P6SM SCT012 BKN200
     FM031300 23012KT P6SM BKN200
     FM031600 36013G23KT P6SM SCT015 SCT200=



000
FTUS43 KDDC 030640 AAA
TAFGCK
TAF AMD
KGCK 030640Z 0307/0406 19023G33KT P6SM SCT012 BKN200
      TEMPO 0307/0311 BKN012
     FM031300 23012KT P6SM BKN200
     FM031600 36013G23KT P6SM SCT015 SCT200=



000
FTUS43 KDDC 030640 AAA
TAFGCK
TAF AMD
KGCK 030640Z 0307/0406 19023G33KT P6SM SCT012 BKN200
      TEMPO 0307/0311 BKN012
     FM031300 23012KT P6SM BKN200
     FM031600 36013G23KT P6SM SCT015 SCT200=



000
FTUS43 KDDC 030640 AAA
TAFGCK
TAF AMD
KGCK 030640Z 0307/0406 19023G33KT P6SM SCT012 BKN200
      TEMPO 0307/0311 BKN012
     FM031300 23012KT P6SM BKN200
     FM031600 36013G23KT P6SM SCT015 SCT200=



000
FTUS43 KDDC 030640 AAA
TAFGCK
TAF AMD
KGCK 030640Z 0307/0406 19023G33KT P6SM SCT012 BKN200
      TEMPO 0307/0311 BKN012
     FM031300 23012KT P6SM BKN200
     FM031600 36013G23KT P6SM SCT015 SCT200=



000
FTUS43 KDDC 030535
TAFDDC
TAF
KDDC 030535Z 0306/0406 20018G26KT P6SM SCT018 BKN200
      TEMPO 0309/0313 BKN018
     FM031400 23012G20KT P6SM BKN200
     FM031600 34014G24KT P6SM SCT015 SCT200=



000
FTUS43 KDDC 030535
TAFHYS
TAF
KHYS 030535Z 0306/0406 16013G18KT P6SM BKN200
     FM031000 24008KT P6SM BKN200
     FM031500 32018G28KT P6SM SCT025 BKN200=



000
FTUS43 KDDC 030535
TAFGCK
TAF
KGCK 030535Z 0306/0406 19023G33KT P6SM SCT015 BKN200
      TEMPO 0309/0313 BKN015
     FM031300 23012KT P6SM BKN200
     FM031600 36013G23KT P6SM SCT015 SCT200=



000
FTUS43 KDDC 030535
TAFDDC
TAF
KDDC 030535Z 0306/0406 20018G26KT P6SM SCT018 BKN200
      TEMPO 0309/0313 BKN018
     FM031400 23012G20KT P6SM BKN200
     FM031600 34014G24KT P6SM SCT015 SCT200=



000
FTUS43 KDDC 030535
TAFHYS
TAF
KHYS 030535Z 0306/0406 16013G18KT P6SM BKN200
     FM031000 24008KT P6SM BKN200
     FM031500 32018G28KT P6SM SCT025 BKN200=



000
FTUS43 KDDC 030535
TAFGCK
TAF
KGCK 030535Z 0306/0406 19023G33KT P6SM SCT015 BKN200
      TEMPO 0309/0313 BKN015
     FM031300 23012KT P6SM BKN200
     FM031600 36013G23KT P6SM SCT015 SCT200=



000
FTUS43 KDDC 030535
TAFHYS
TAF
KHYS 030535Z 0306/0406 16013G18KT P6SM BKN200
     FM031000 24008KT P6SM BKN200
     FM031500 32018G28KT P6SM SCT025 BKN200=



000
FTUS43 KDDC 030535
TAFGCK
TAF
KGCK 030535Z 0306/0406 19023G33KT P6SM SCT015 BKN200
      TEMPO 0309/0313 BKN015
     FM031300 23012KT P6SM BKN200
     FM031600 36013G23KT P6SM SCT015 SCT200=



000
FTUS43 KDDC 030535
TAFDDC
TAF
KDDC 030535Z 0306/0406 20018G26KT P6SM SCT018 BKN200
      TEMPO 0309/0313 BKN018
     FM031400 23012G20KT P6SM BKN200
     FM031600 34014G24KT P6SM SCT015 SCT200=



000
FTUS43 KDDC 030535
TAFGCK
TAF
KGCK 030535Z 0306/0406 19023G33KT P6SM SCT015 BKN200
      TEMPO 0309/0313 BKN015
     FM031300 23012KT P6SM BKN200
     FM031600 36013G23KT P6SM SCT015 SCT200=



000
FTUS43 KDDC 030535
TAFHYS
TAF
KHYS 030535Z 0306/0406 16013G18KT P6SM BKN200
     FM031000 24008KT P6SM BKN200
     FM031500 32018G28KT P6SM SCT025 BKN200=



000
FTUS43 KDDC 030535
TAFDDC
TAF
KDDC 030535Z 0306/0406 20018G26KT P6SM SCT018 BKN200
      TEMPO 0309/0313 BKN018
     FM031400 23012G20KT P6SM BKN200
     FM031600 34014G24KT P6SM SCT015 SCT200=



000
FTUS43 KDDC 022322
TAFHYS
TAF
KHYS 022322Z 0300/0324 17018G24KT P6SM OVC015
     FM030400 18018G24KT 3SM BR OVC004
     FM031500 23014KT 5SM HZ OVC007=



000
FTUS43 KDDC 022322
TAFGCK
TAF
KGCK 022322Z 0300/0324 18018G24KT P6SM SCT004 OVC014
      TEMPO 0305/0309 19020G28KT 1SM BR OVC001
     FM031500 23014G24KT 5SM HZ OVC007=



000
FTUS43 KDDC 022322
TAFDDC
TAF
KDDC 022322Z 0300/0324 17018G24KT P6SM SCT005 BKN020
      TEMPO 0305/0309 19020G28KT 1SM BR OVC001
     FM031500 23014G24KT 5SM HZ OVC007=



000
FTUS43 KDDC 022322
TAFHYS
TAF
KHYS 022322Z 0300/0324 17018G24KT P6SM OVC015
     FM030400 18018G24KT 3SM BR OVC004
     FM031500 23014KT 5SM HZ OVC007=



000
FTUS43 KDDC 022322
TAFDDC
TAF
KDDC 022322Z 0300/0324 17018G24KT P6SM SCT005 BKN020
      TEMPO 0305/0309 19020G28KT 1SM BR OVC001
     FM031500 23014G24KT 5SM HZ OVC007=



000
FTUS43 KDDC 022322
TAFGCK
TAF
KGCK 022322Z 0300/0324 18018G24KT P6SM SCT004 OVC014
      TEMPO 0305/0309 19020G28KT 1SM BR OVC001
     FM031500 23014G24KT 5SM HZ OVC007=



000
FTUS43 KDDC 022140 AAA
TAFHYS
TAF AMD
KHYS 022140Z 0222/0318 16019G23KT P6SM BKN120
     FM030000 16013KT P6SM OVC015
     FM030400 18018G22KT 3SM BR OVC004
     FM031500 23014KT 5SM HZ OVC007=



000
FTUS43 KDDC 022140 AAA
TAFHYS
TAF AMD
KHYS 022140Z 0222/0318 16019G23KT P6SM BKN120
     FM030000 16013KT P6SM OVC015
     FM030400 18018G22KT 3SM BR OVC004
     FM031500 23014KT 5SM HZ OVC007=



000
FTUS43 KDDC 022137 AAB
TAFDDC
TAF AMD
KDDC 022137Z 0222/0318 17019KT P6SM BKN020
     FM030100 18018G22KT 3SM BR OVC004
      TEMPO 0305/0309 1SM BR OVC001
     FM031500 23014KT 5SM HZ OVC007=



000
FTUS43 KDDC 022137 AAB
TAFDDC
TAF AMD
KDDC 022137Z 0222/0318 17019KT P6SM BKN020
     FM030100 18018G22KT 3SM BR OVC004
      TEMPO 0305/0309 1SM BR OVC001
     FM031500 23014KT 5SM HZ OVC007=



000
FTUS43 KDDC 022111 AAA
TAFDDC
TAF AMD
KDDC 022111Z 0221/0318 17016G21KT P6SM FEW019 BKN120
     FM030100 18018G22KT 3SM BR OVC004
      TEMPO 0305/0309 1SM BR OVC001
     FM031500 23014KT 5SM HZ OVC007=



000
FTUS43 KDDC 021736
TAFHYS
TAF
KHYS 021736Z 0218/0318 17017G21KT P6SM OVC050
     FM022100 16013KT P6SM OVC015
     FM030400 18018G22KT 3SM BR OVC004
     FM031500 23014KT 5SM HZ OVC007=



000
FTUS43 KDDC 021736
TAFGCK
TAF
KGCK 021736Z 0218/0318 17015G22KT P6SM OVC014
     FM030100 18018G22KT 3SM BR OVC004
      TEMPO 0305/0309 1SM BR OVC001
     FM031500 23014KT 5SM HZ OVC007=



000
FTUS43 KDDC 021736
TAFHYS
TAF
KHYS 021736Z 0218/0318 17017G21KT P6SM OVC050
     FM022100 16013KT P6SM OVC015
     FM030400 18018G22KT 3SM BR OVC004
     FM031500 23014KT 5SM HZ OVC007=



000
FTUS43 KDDC 021736
TAFGCK
TAF
KGCK 021736Z 0218/0318 17015G22KT P6SM OVC014
     FM030100 18018G22KT 3SM BR OVC004
      TEMPO 0305/0309 1SM BR OVC001
     FM031500 23014KT 5SM HZ OVC007=



000
FTUS43 KDDC 021736
TAFHYS
TAF
KHYS 021736Z 0218/0318 17017G21KT P6SM OVC050
     FM022100 16013KT P6SM OVC015
     FM030400 18018G22KT 3SM BR OVC004
     FM031500 23014KT 5SM HZ OVC007=



000
FTUS43 KDDC 021736
TAFGCK
TAF
KGCK 021736Z 0218/0318 17015G22KT P6SM OVC014
     FM030100 18018G22KT 3SM BR OVC004
      TEMPO 0305/0309 1SM BR OVC001
     FM031500 23014KT 5SM HZ OVC007=



000
FTUS43 KDDC 021736
TAFDDC
TAF
KDDC 021736Z 0218/0318 16019KT P6SM BKN013
     FM030100 18018G22KT 3SM BR OVC004
      TEMPO 0305/0309 1SM BR OVC001
     FM031500 23014KT 5SM HZ OVC007=



000
FTUS43 KDDC 021736
TAFHYS
TAF
KHYS 021736Z 0218/0318 17017G21KT P6SM OVC050
     FM022100 16013KT P6SM OVC015
     FM030400 18018G22KT 3SM BR OVC004
     FM031500 23014KT 5SM HZ OVC007=



000
FTUS43 KDDC 021736
TAFGCK
TAF
KGCK 021736Z 0218/0318 17015G22KT P6SM OVC014
     FM030100 18018G22KT 3SM BR OVC004
      TEMPO 0305/0309 1SM BR OVC001
     FM031500 23014KT 5SM HZ OVC007=



000
FTUS43 KDDC 021736
TAFDDC
TAF
KDDC 021736Z 0218/0318 16019KT P6SM BKN013
     FM030100 18018G22KT 3SM BR OVC004
      TEMPO 0305/0309 1SM BR OVC001
     FM031500 23014KT 5SM HZ OVC007=



000
FTUS43 KDDC 021736
TAFDDC
TAF
KDDC 021736Z 0218/0318 16019KT P6SM BKN013
     FM030100 18018G22KT 3SM BR OVC004
      TEMPO 0305/0309 1SM BR OVC001
     FM031500 23014KT 5SM HZ OVC007=



000
FTUS43 KDDC 021736
TAFDDC
TAF
KDDC 021736Z 0218/0318 16019KT P6SM BKN013
     FM030100 18018G22KT 3SM BR OVC004
      TEMPO 0305/0309 1SM BR OVC001
     FM031500 23014KT 5SM HZ OVC007=



000
FTUS43 KDDC 021617 AAB
TAFDDC
TAF AMD
KDDC 021617Z 0216/0312 17015KT 5SM HZ OVC011
     FM030200 18015G22KT 3SM BR OVC007=



000
FTUS43 KDDC 021617 AAB
TAFDDC
TAF AMD
KDDC 021617Z 0216/0312 17015KT 5SM HZ OVC011
     FM030200 18015G22KT 3SM BR OVC007=



000
FTUS43 KDDC 021617 AAB
TAFDDC
TAF AMD
KDDC 021617Z 0216/0312 17015KT 5SM HZ OVC011
     FM030200 18015G22KT 3SM BR OVC007=



000
FTUS43 KDDC 021603 AAA
TAFGCK
TAF AMD
KGCK 021603Z 0216/0312 17014KT 5SM HZ FEW011 BKN050
     FM021800 17015KT 5SM HZ OVC011
     FM030200 18015G22KT 3SM BR OVC007=



000
FTUS43 KDDC 021603 AAA
TAFGCK
TAF AMD
KGCK 021603Z 0216/0312 17014KT 5SM HZ FEW011 BKN050
     FM021800 17015KT 5SM HZ OVC011
     FM030200 18015G22KT 3SM BR OVC007=



000
FTUS43 KDDC 021602 AAA
TAFDDC
TAF AMD
KDDC 021602Z 0216/0312 16015KT 5SM HZ FEW011 BKN050
     FM021800 17015KT 5SM HZ OVC011
     FM030200 18015G22KT 3SM BR OVC007=



000
FTUS43 KDDC 021602 AAA
TAFDDC
TAF AMD
KDDC 021602Z 0216/0312 16015KT 5SM HZ FEW011 BKN050
     FM021800 17015KT 5SM HZ OVC011
     FM030200 18015G22KT 3SM BR OVC007=



000
FTUS43 KDDC 021602 AAA
TAFDDC
TAF AMD
KDDC 021602Z 0216/0312 16015KT 5SM HZ FEW011 BKN050
     FM021800 17015KT 5SM HZ OVC011
     FM030200 18015G22KT 3SM BR OVC007=



000
FTUS43 KDDC 021602 AAA
TAFDDC
TAF AMD
KDDC 021602Z 0216/0312 16015KT 5SM HZ FEW011 BKN050
     FM021800 17015KT 5SM HZ OVC011
     FM030200 18015G22KT 3SM BR OVC007=



000
FTUS43 KDDC 021120
TAFHYS
TAF
KHYS 021120Z 0212/0312 14009KT P6SM BKN200
     FM021700 17013G20KT P6SM SCT025 BKN200
     FM030100 18013KT 5SM BR OVC012=



000
FTUS43 KDDC 021120
TAFDDC
TAF
KDDC 021120Z 0212/0312 16009KT 5SM BR BKN200
     FM021600 17014G20KT P6SM SCT019 BKN200
     FM022300 18015G22KT 5SM BR OVC012=



000
FTUS43 KDDC 021120
TAFGCK
TAF
KGCK 021120Z 0212/0312 16009KT 5SM BR SCT030 BKN200
     FM021500 17015G25KT P6SM BKN024
     FM022300 18018G24KT 4SM BR OVC011=



000
FTUS43 KDDC 021120
TAFHYS
TAF
KHYS 021120Z 0212/0312 14009KT P6SM BKN200
     FM021700 17013G20KT P6SM SCT025 BKN200
     FM030100 18013KT 5SM BR OVC012=



000
FTUS43 KDDC 021120
TAFGCK
TAF
KGCK 021120Z 0212/0312 16009KT 5SM BR SCT030 BKN200
     FM021500 17015G25KT P6SM BKN024
     FM022300 18018G24KT 4SM BR OVC011=



000
FTUS43 KDDC 021120
TAFDDC
TAF
KDDC 021120Z 0212/0312 16009KT 5SM BR BKN200
     FM021600 17014G20KT P6SM SCT019 BKN200
     FM022300 18015G22KT 5SM BR OVC012=



000
FTUS43 KDDC 021120
TAFGCK
TAF
KGCK 021120Z 0212/0312 16009KT 5SM BR SCT030 BKN200
     FM021500 17015G25KT P6SM BKN024
     FM022300 18018G24KT 4SM BR OVC011=



000
FTUS43 KDDC 021120
TAFDDC
TAF
KDDC 021120Z 0212/0312 16009KT 5SM BR BKN200
     FM021600 17014G20KT P6SM SCT019 BKN200
     FM022300 18015G22KT 5SM BR OVC012=



000
FTUS43 KDDC 021120
TAFHYS
TAF
KHYS 021120Z 0212/0312 14009KT P6SM BKN200
     FM021700 17013G20KT P6SM SCT025 BKN200
     FM030100 18013KT 5SM BR OVC012=



000
FTUS43 KDDC 020539
TAFDDC
TAF
KDDC 020539Z 0206/0306 VRB06KT P6SM SCT030 BKN200
     FM021500 15015G25KT P6SM SCT200=



000
FTUS43 KDDC 020539
TAFHYS
TAF
KHYS 020539Z 0206/0306 VRB05KT P6SM BKN150
     FM021500 15013KT P6SM SCT200=



000
FTUS43 KDDC 020539
TAFGCK
TAF
KGCK 020539Z 0206/0306 VRB06KT P6SM SCT030 BKN200
     FM021500 15015G25KT P6SM SCT200=



000
FTUS43 KDDC 020539
TAFDDC
TAF
KDDC 020539Z 0206/0306 VRB06KT P6SM SCT030 BKN200
     FM021500 15015G25KT P6SM SCT200=



000
FTUS43 KDDC 020539
TAFHYS
TAF
KHYS 020539Z 0206/0306 VRB05KT P6SM BKN150
     FM021500 15013KT P6SM SCT200=



000
FTUS43 KDDC 020539
TAFGCK
TAF
KGCK 020539Z 0206/0306 VRB06KT P6SM SCT030 BKN200
     FM021500 15015G25KT P6SM SCT200=



000
FTUS43 KDDC 020539
TAFDDC
TAF
KDDC 020539Z 0206/0306 VRB06KT P6SM SCT030 BKN200
     FM021500 15015G25KT P6SM SCT200=



000
FTUS43 KDDC 020539
TAFGCK
TAF
KGCK 020539Z 0206/0306 VRB06KT P6SM SCT030 BKN200
     FM021500 15015G25KT P6SM SCT200=



000
FTUS43 KDDC 020539
TAFDDC
TAF
KDDC 020539Z 0206/0306 VRB06KT P6SM SCT030 BKN200
     FM021500 15015G25KT P6SM SCT200=



000
FTUS43 KDDC 020539
TAFHYS
TAF
KHYS 020539Z 0206/0306 VRB05KT P6SM BKN150
     FM021500 15013KT P6SM SCT200=



000
FTUS43 KDDC 020539
TAFGCK
TAF
KGCK 020539Z 0206/0306 VRB06KT P6SM SCT030 BKN200
     FM021500 15015G25KT P6SM SCT200=



000
FTUS43 KDDC 020539
TAFHYS
TAF
KHYS 020539Z 0206/0306 VRB05KT P6SM BKN150
     FM021500 15013KT P6SM SCT200=



000
FTUS43 KDDC 012339
TAFGCK
TAF
KGCK 012339Z 0200/0224 VRB05KT P6SM OVC025
     FM020300 VRB06KT P6SM SCT030 BKN200
     FM021500 15015G25KT P6SM SCT200=



000
FTUS43 KDDC 012339
TAFDDC
TAF
KDDC 012339Z 0200/0224 VRB05KT P6SM OVC025
     FM020300 VRB06KT P6SM SCT030 BKN200
     FM021500 15015G25KT P6SM SCT200=



000
FTUS43 KDDC 012339
TAFGCK
TAF
KGCK 012339Z 0200/0224 VRB05KT P6SM OVC025
     FM020300 VRB06KT P6SM SCT030 BKN200
     FM021500 15015G25KT P6SM SCT200=



000
FTUS43 KDDC 012339
TAFHYS
TAF
KHYS 012339Z 0200/0224 VRB05KT P6SM BKN150
     FM021500 15013KT P6SM SCT200=



000
FTUS43 KDDC 012339
TAFDDC
TAF
KDDC 012339Z 0200/0224 VRB05KT P6SM OVC025
     FM020300 VRB06KT P6SM SCT030 BKN200
     FM021500 15015G25KT P6SM SCT200=



000
FTUS43 KDDC 012339
TAFHYS
TAF
KHYS 012339Z 0200/0224 VRB05KT P6SM BKN150
     FM021500 15013KT P6SM SCT200=



000
FTUS43 KDDC 012339
TAFHYS
TAF
KHYS 012339Z 0200/0224 VRB05KT P6SM BKN150
     FM021500 15013KT P6SM SCT200=



000
FTUS43 KDDC 012339
TAFGCK
TAF
KGCK 012339Z 0200/0224 VRB05KT P6SM OVC025
     FM020300 VRB06KT P6SM SCT030 BKN200
     FM021500 15015G25KT P6SM SCT200=



000
FTUS43 KDDC 012339
TAFDDC
TAF
KDDC 012339Z 0200/0224 VRB05KT P6SM OVC025
     FM020300 VRB06KT P6SM SCT030 BKN200
     FM021500 15015G25KT P6SM SCT200=



000
FTUS43 KDDC 012339
TAFGCK
TAF
KGCK 012339Z 0200/0224 VRB05KT P6SM OVC025
     FM020300 VRB06KT P6SM SCT030 BKN200
     FM021500 15015G25KT P6SM SCT200=



000
FTUS43 KDDC 012339
TAFHYS
TAF
KHYS 012339Z 0200/0224 VRB05KT P6SM BKN150
     FM021500 15013KT P6SM SCT200=



000
FTUS43 KDDC 012339
TAFDDC
TAF
KDDC 012339Z 0200/0224 VRB05KT P6SM OVC025
     FM020300 VRB06KT P6SM SCT030 BKN200
     FM021500 15015G25KT P6SM SCT200=



000
FTUS43 KDDC 012206 AAA
TAFDDC
TAF AMD
KDDC 012206Z 0122/0218 VRB04KT P6SM OVC025
     FM020000 VRB05KT P6SM SCT030=



000
FTUS43 KDDC 012206 AAA
TAFDDC
TAF AMD
KDDC 012206Z 0122/0218 VRB04KT P6SM OVC025
     FM020000 VRB05KT P6SM SCT030=



000
FTUS43 KDDC 012206 AAA
TAFDDC
TAF AMD
KDDC 012206Z 0122/0218 VRB04KT P6SM OVC025
     FM020000 VRB05KT P6SM SCT030=



000
FTUS43 KDDC 012206 AAA
TAFGCK
TAF AMD
KGCK 012206Z 0122/0218 VRB04KT P6SM OVC025
     FM020000 VRB05KT P6SM SCT030=



000
FTUS43 KDDC 012206 AAA
TAFGCK
TAF AMD
KGCK 012206Z 0122/0218 VRB04KT P6SM OVC025
     FM020000 VRB05KT P6SM SCT030=



000
FTUS43 KDDC 012206 AAA
TAFDDC
TAF AMD
KDDC 012206Z 0122/0218 VRB04KT P6SM OVC025
     FM020000 VRB05KT P6SM SCT030=



000
FTUS43 KDDC 011734
TAFGCK
TAF
KGCK 011734Z 0118/0218 VRB04KT P6SM OVC025
     FM012300 VRB05KT P6SM SCT025=



000
FTUS43 KDDC 011734
TAFHYS
TAF
KHYS 011734Z 0118/0218 VRB05KT P6SM SCT025=



000
FTUS43 KDDC 011734
TAFDDC
TAF
KDDC 011734Z 0118/0218 VRB04KT P6SM OVC025
     FM012300 VRB05KT P6SM SCT025=



000
FTUS43 KDDC 011734
TAFHYS
TAF
KHYS 011734Z 0118/0218 VRB05KT P6SM SCT025=



000
FTUS43 KDDC 011734
TAFGCK
TAF
KGCK 011734Z 0118/0218 VRB04KT P6SM OVC025
     FM012300 VRB05KT P6SM SCT025=



000
FTUS43 KDDC 011734
TAFDDC
TAF
KDDC 011734Z 0118/0218 VRB04KT P6SM OVC025
     FM012300 VRB05KT P6SM SCT025=



000
FTUS43 KDDC 011734
TAFGCK
TAF
KGCK 011734Z 0118/0218 VRB04KT P6SM OVC025
     FM012300 VRB05KT P6SM SCT025=



000
FTUS43 KDDC 011734
TAFHYS
TAF
KHYS 011734Z 0118/0218 VRB05KT P6SM SCT025=



000
FTUS43 KDDC 011734
TAFDDC
TAF
KDDC 011734Z 0118/0218 VRB04KT P6SM OVC025
     FM012300 VRB05KT P6SM SCT025=



000
FTUS43 KDDC 011734
TAFDDC
TAF
KDDC 011734Z 0118/0218 VRB04KT P6SM OVC025
     FM012300 VRB05KT P6SM SCT025=



000
FTUS43 KDDC 011734
TAFHYS
TAF
KHYS 011734Z 0118/0218 VRB05KT P6SM SCT025=



000
FTUS43 KDDC 011734
TAFGCK
TAF
KGCK 011734Z 0118/0218 VRB04KT P6SM OVC025
     FM012300 VRB05KT P6SM SCT025=



000
FTUS43 KDDC 011453 AAB
TAFDDC
TAF AMD
KDDC 011453Z 0115/0212 VRB04KT 2SM BR OVC012
     FM011700 VRB04KT 4SM BR OVC015
     FM012000 34006KT P6SM OVC015=



000
FTUS43 KDDC 011453 AAB
TAFDDC
TAF AMD
KDDC 011453Z 0115/0212 VRB04KT 2SM BR OVC012
     FM011700 VRB04KT 4SM BR OVC015
     FM012000 34006KT P6SM OVC015=



000
FTUS43 KDDC 011453 AAB
TAFDDC
TAF AMD
KDDC 011453Z 0115/0212 VRB04KT 2SM BR OVC012
     FM011700 VRB04KT 4SM BR OVC015
     FM012000 34006KT P6SM OVC015=



000
FTUS43 KDDC 011316 AAA
TAFDDC
TAF AMD
KDDC 011316Z 0113/0212 VRB06KT 4SM BR SCT012 OVC025
     FM011900 34006KT P6SM OVC015=



000
FTUS43 KDDC 011122
TAFGCK
TAF
KGCK 011122Z 0112/0212 VRB06KT 3SM BR OVC004
      TEMPO 0113/0116 2SM BR
     FM011700 02006KT P6SM OVC010=



000
FTUS43 KDDC 011122
TAFGCK
TAF
KGCK 011122Z 0112/0212 VRB06KT 3SM BR OVC004
      TEMPO 0113/0116 2SM BR
     FM011700 02006KT P6SM OVC010=



000
FTUS43 KDDC 011122
TAFDDC
TAF
KDDC 011122Z 0112/0212 VRB06KT 2SM BR OVC003
      TEMPO 0113/0115 1SM BR
     FM011500 VRB06KT P6SM OVC009
     FM011900 34006KT P6SM OVC015=



000
FTUS43 KDDC 011122
TAFHYS
TAF
KHYS 011122Z 0112/0212 VRB06KT P6SM SCT016 BKN035=



000
FTUS43 KDDC 011122
TAFHYS
TAF
KHYS 011122Z 0112/0212 VRB06KT P6SM SCT016 BKN035=



000
FTUS43 KDDC 011122
TAFDDC
TAF
KDDC 011122Z 0112/0212 VRB06KT 2SM BR OVC003
      TEMPO 0113/0115 1SM BR
     FM011500 VRB06KT P6SM OVC009
     FM011900 34006KT P6SM OVC015=



000
FTUS43 KDDC 011122
TAFHYS
TAF
KHYS 011122Z 0112/0212 VRB06KT P6SM SCT016 BKN035=



000
FTUS43 KDDC 011122
TAFDDC
TAF
KDDC 011122Z 0112/0212 VRB06KT 2SM BR OVC003
      TEMPO 0113/0115 1SM BR
     FM011500 VRB06KT P6SM OVC009
     FM011900 34006KT P6SM OVC015=



000
FTUS43 KDDC 011122
TAFDDC
TAF
KDDC 011122Z 0112/0212 VRB06KT 2SM BR OVC003
      TEMPO 0113/0115 1SM BR
     FM011500 VRB06KT P6SM OVC009
     FM011900 34006KT P6SM OVC015=



000
FTUS43 KDDC 011122
TAFHYS
TAF
KHYS 011122Z 0112/0212 VRB06KT P6SM SCT016 BKN035=



000
FTUS43 KDDC 011122
TAFGCK
TAF
KGCK 011122Z 0112/0212 VRB06KT 3SM BR OVC004
      TEMPO 0113/0116 2SM BR
     FM011700 02006KT P6SM OVC010=



000
FTUS43 KDDC 011122
TAFGCK
TAF
KGCK 011122Z 0112/0212 VRB06KT 3SM BR OVC004
      TEMPO 0113/0116 2SM BR
     FM011700 02006KT P6SM OVC010=



000
FTUS43 KDDC 010538
TAFGCK
TAF
KGCK 010538Z 0106/0206 14007KT P6SM OVC007
      TEMPO 0108/0112 2SM -SN
     FM011200 11007KT P6SM OVC003
     FM011500 04008KT P6SM OVC010
     FM011800 04008KT P6SM OVC020=



000
FTUS43 KDDC 010538
TAFHYS
TAF
KHYS 010538Z 0106/0206 14007KT P6SM OVC015
      TEMPO 0109/0113 3SM -SN
     FM011300 10007KT P6SM OVC040=



000
FTUS43 KDDC 010538
TAFDDC
TAF
KDDC 010538Z 0106/0206 14007KT 5SM BR OVC006
      TEMPO 0109/0113 2SM -SN
     FM011300 11007KT P6SM OVC003
     FM011500 04008KT P6SM OVC010
     FM011800 04008KT P6SM OVC020=



000
FTUS43 KDDC 010538
TAFGCK
TAF
KGCK 010538Z 0106/0206 14007KT P6SM OVC007
      TEMPO 0108/0112 2SM -SN
     FM011200 11007KT P6SM OVC003
     FM011500 04008KT P6SM OVC010
     FM011800 04008KT P6SM OVC020=



000
FTUS43 KDDC 010538
TAFHYS
TAF
KHYS 010538Z 0106/0206 14007KT P6SM OVC015
      TEMPO 0109/0113 3SM -SN
     FM011300 10007KT P6SM OVC040=



000
FTUS43 KDDC 010538
TAFDDC
TAF
KDDC 010538Z 0106/0206 14007KT 5SM BR OVC006
      TEMPO 0109/0113 2SM -SN
     FM011300 11007KT P6SM OVC003
     FM011500 04008KT P6SM OVC010
     FM011800 04008KT P6SM OVC020=



000
FTUS43 KDDC 010538
TAFHYS
TAF
KHYS 010538Z 0106/0206 14007KT P6SM OVC015
      TEMPO 0109/0113 3SM -SN
     FM011300 10007KT P6SM OVC040=



000
FTUS43 KDDC 010538
TAFHYS
TAF
KHYS 010538Z 0106/0206 14007KT P6SM OVC015
      TEMPO 0109/0113 3SM -SN
     FM011300 10007KT P6SM OVC040=



000
FTUS43 KDDC 010538
TAFGCK
TAF
KGCK 010538Z 0106/0206 14007KT P6SM OVC007
      TEMPO 0108/0112 2SM -SN
     FM011200 11007KT P6SM OVC003
     FM011500 04008KT P6SM OVC010
     FM011800 04008KT P6SM OVC020=



000
FTUS43 KDDC 010538
TAFDDC
TAF
KDDC 010538Z 0106/0206 14007KT 5SM BR OVC006
      TEMPO 0109/0113 2SM -SN
     FM011300 11007KT P6SM OVC003
     FM011500 04008KT P6SM OVC010
     FM011800 04008KT P6SM OVC020=



000
FTUS43 KDDC 010538
TAFDDC
TAF
KDDC 010538Z 0106/0206 14007KT 5SM BR OVC006
      TEMPO 0109/0113 2SM -SN
     FM011300 11007KT P6SM OVC003
     FM011500 04008KT P6SM OVC010
     FM011800 04008KT P6SM OVC020=



000
FTUS43 KDDC 010538
TAFGCK
TAF
KGCK 010538Z 0106/0206 14007KT P6SM OVC007
      TEMPO 0108/0112 2SM -SN
     FM011200 11007KT P6SM OVC003
     FM011500 04008KT P6SM OVC010
     FM011800 04008KT P6SM OVC020=



000
FTUS43 KDDC 010342 AAA
TAFGCK
TAF AMD
KGCK 010342Z 0104/0124 14007KT P6SM OVC020
     FM010600 14007KT P6SM OVC007
      TEMPO 0108/0112 2SM -SN
     FM011200 11007KT P6SM OVC003=



000
FTUS43 KDDC 010342 AAA
TAFGCK
TAF AMD
KGCK 010342Z 0104/0124 14007KT P6SM OVC020
     FM010600 14007KT P6SM OVC007
      TEMPO 0108/0112 2SM -SN
     FM011200 11007KT P6SM OVC003=



000
FTUS43 KDDC 010342 AAA
TAFHYS
TAF AMD
KHYS 010342Z 0104/0124 14007KT P6SM OVC020
      TEMPO 0109/0113 3SM -SN
     FM011300 10007KT P6SM OVC040=



000
FTUS43 KDDC 010342 AAA
TAFHYS
TAF AMD
KHYS 010342Z 0104/0124 14007KT P6SM OVC020
      TEMPO 0109/0113 3SM -SN
     FM011300 10007KT P6SM OVC040=



000
FTUS43 KDDC 010341 AAC
TAFDDC
TAF AMD
KDDC 010341Z 0104/0124 14007KT P6SM OVC007
      TEMPO 0108/0112 2SM -SN
     FM011200 11007KT P6SM OVC003=



000
FTUS43 KDDC 010341 AAC
TAFDDC
TAF AMD
KDDC 010341Z 0104/0124 14007KT P6SM OVC007
      TEMPO 0108/0112 2SM -SN
     FM011200 11007KT P6SM OVC003=



000
FTUS43 KDDC 010258 AAB
TAFDDC
TAF AMD
KDDC 010258Z 0103/0124 17007KT P6SM OVC010
      TEMPO 0103/0106 BKN008
     FM010600 14007KT P6SM OVC007
      TEMPO 0108/0112 2SM -SN
     FM011200 11007KT P6SM OVC003=



000
FTUS43 KDDC 010258 AAB
TAFDDC
TAF AMD
KDDC 010258Z 0103/0124 17007KT P6SM OVC010
      TEMPO 0103/0106 BKN008
     FM010600 14007KT P6SM OVC007
      TEMPO 0108/0112 2SM -SN
     FM011200 11007KT P6SM OVC003=



000
FTUS43 KDDC 010258 AAB
TAFDDC
TAF AMD
KDDC 010258Z 0103/0124 17007KT P6SM OVC010
      TEMPO 0103/0106 BKN008
     FM010600 14007KT P6SM OVC007
      TEMPO 0108/0112 2SM -SN
     FM011200 11007KT P6SM OVC003=



000
FTUS43 KDDC 010133 AAA
TAFDDC
TAF AMD
KDDC 010133Z 0102/0124 17007KT P6SM OVC010
     FM010600 14007KT P6SM OVC007
      TEMPO 0108/0112 2SM -SN
     FM011200 11007KT P6SM OVC003=



000
FTUS43 KDDC 010133 AAA
TAFDDC
TAF AMD
KDDC 010133Z 0102/0124 17007KT P6SM OVC010
     FM010600 14007KT P6SM OVC007
      TEMPO 0108/0112 2SM -SN
     FM011200 11007KT P6SM OVC003=



000
FTUS43 KDDC 010133 AAA
TAFDDC
TAF AMD
KDDC 010133Z 0102/0124 17007KT P6SM OVC010
     FM010600 14007KT P6SM OVC007
      TEMPO 0108/0112 2SM -SN
     FM011200 11007KT P6SM OVC003=



000
FTUS43 KDDC 010133 AAA
TAFDDC
TAF AMD
KDDC 010133Z 0102/0124 17007KT P6SM OVC010
     FM010600 14007KT P6SM OVC007
      TEMPO 0108/0112 2SM -SN
     FM011200 11007KT P6SM OVC003=



    US Dept of Commerce
    National Oceanic and Atmospheric Administration
    National Weather Service
    1325 East West Highway
    Silver Spring, MD 20910
    Page Author: NWS Internet Services Team
Disclaimer
Information Quality
Credits
Glossary
Privacy Policy
Freedom of Information Act (FOIA)
About Us
Career Opportunities